createdAt,value
2023-03-14T00:02:48.688Z,9.60
2023-03-14T00:07:57.175Z,9.80
2023-03-14T00:13:04.164Z,10.40
2023-03-14T00:18:10.978Z,10.20
2023-03-14T00:23:17.807Z,10.10
2023-03-14T00:28:24.804Z,9.70
2023-03-14T00:33:31.678Z,10.30
2023-03-14T00:38:40.308Z,10.10
2023-03-14T00:43:47.759Z,10.10
2023-03-14T00:48:54.644Z,10.50
2023-03-14T00:54:02.782Z,11.10
2023-03-14T00:59:09.987Z,11.00
2023-03-14T01:04:16.940Z,11.00
2023-03-14T01:09:23.838Z,11.00
2023-03-14T01:14:30.762Z,10.50
2023-03-14T01:19:37.962Z,10.00
2023-03-14T01:24:44.824Z,9.60
2023-03-14T01:29:52.320Z,9.70
2023-03-14T01:34:59.157Z,10.40
2023-03-14T01:40:07.909Z,9.80
2023-03-14T01:46:10.552Z,9.60
2023-03-14T01:51:31.123Z,9.40
2023-03-14T01:56:39.715Z,9.30
2023-03-14T02:01:49.455Z,9.00
2023-03-14T02:07:09.463Z,8.90
2023-03-14T02:12:19.230Z,8.50
2023-03-14T02:17:27.071Z,8.30
2023-03-14T02:22:34.616Z,8.90
2023-03-14T02:27:42.497Z,9.40
2023-03-14T02:32:59.240Z,9.90
2023-03-14T02:38:19.561Z,10.10
2023-03-14T02:43:26.485Z,10.00
2023-03-14T02:48:40.427Z,10.90
2023-03-14T02:53:46.994Z,10.70
2023-03-14T02:58:53.706Z,10.60
2023-03-14T03:04:00.425Z,10.60
2023-03-14T03:09:07.491Z,10.70
2023-03-14T03:14:14.204Z,10.80
2023-03-14T03:19:20.873Z,10.70
2023-03-14T03:24:28.581Z,10.90
2023-03-14T03:29:35.294Z,10.80
2023-03-14T03:34:41.987Z,10.80
2023-03-14T03:39:48.756Z,11.20
2023-03-14T03:44:55.504Z,11.00
2023-03-14T03:50:02.356Z,11.10
2023-03-14T03:55:09.759Z,10.80
2023-03-14T04:00:46.509Z,10.80
2023-03-14T04:06:08.859Z,10.90
2023-03-14T04:11:17.220Z,11.00
2023-03-14T04:16:27.639Z,11.10
2023-03-14T04:21:34.338Z,10.90
2023-03-14T04:26:41.131Z,10.90
2023-03-14T04:31:47.886Z,10.80
2023-03-14T04:36:54.530Z,11.20
2023-03-14T04:42:02.067Z,10.90
2023-03-14T04:47:08.818Z,11.20
2023-03-14T04:52:15.510Z,11.10
2023-03-14T04:57:22.484Z,10.90
2023-03-14T05:02:29.469Z,10.70
2023-03-14T05:07:36.500Z,10.60
2023-03-14T05:12:43.362Z,10.60
2023-03-14T05:17:50.783Z,10.50
2023-03-14T05:22:57.589Z,10.50
2023-03-14T05:28:05.246Z,10.60
2023-03-14T05:33:12.019Z,10.70
2023-03-14T05:38:19.773Z,10.80
2023-03-14T05:43:26.699Z,10.50
2023-03-14T05:48:33.580Z,10.50
2023-03-14T05:53:40.614Z,10.50
2023-03-14T05:58:47.420Z,10.40
2023-03-14T06:03:54.363Z,10.40
2023-03-14T06:09:01.433Z,10.40
2023-03-14T06:14:08.595Z,10.50
2023-03-14T06:19:15.279Z,10.40
2023-03-14T06:24:21.954Z,10.60
2023-03-14T06:29:28.697Z,10.40
2023-03-14T06:34:35.579Z,10.60
2023-03-14T06:39:45.092Z,10.70
2023-03-14T06:44:51.928Z,10.90
2023-03-14T06:49:58.834Z,10.90
2023-03-14T06:55:07.035Z,11.20
2023-03-14T07:00:15.665Z,11.40
2023-03-14T07:05:22.632Z,11.70
2023-03-14T07:10:29.641Z,11.90
2023-03-14T07:15:36.521Z,12.10
2023-03-14T07:20:43.370Z,12.30
2023-03-14T07:25:50.098Z,12.40
2023-03-14T07:30:58.056Z,12.10
2023-03-14T07:36:06.087Z,12.20
2023-03-14T07:41:12.941Z,12.40
2023-03-14T07:46:20.172Z,12.50
2023-03-14T07:51:27.546Z,12.80
2023-03-14T07:56:34.409Z,12.80
2023-03-14T08:01:41.286Z,12.80
2023-03-14T08:06:48.005Z,12.80
2023-03-14T08:11:56.771Z,13.00
2023-03-14T08:17:04.037Z,13.10
2023-03-14T08:22:11.085Z,13.10
2023-03-14T08:27:18.113Z,13.20
2023-03-14T08:32:25.133Z,13.30
2023-03-14T08:37:33.556Z,13.40
2023-03-14T08:42:42.093Z,13.70
2023-03-14T08:47:49.128Z,13.50
2023-03-14T08:52:56.065Z,13.40
2023-03-14T08:58:02.966Z,13.30
2023-03-14T09:03:09.984Z,12.90
2023-03-14T09:08:16.733Z,12.40
2023-03-14T09:13:23.474Z,12.30
2023-03-14T09:18:30.450Z,12.30
2023-03-14T09:23:37.093Z,12.50
2023-03-14T09:28:43.867Z,12.80
2023-03-14T09:33:50.733Z,12.80
2023-03-14T09:38:57.667Z,12.60
2023-03-14T09:44:17.633Z,12.20
2023-03-14T09:49:40.141Z,12.00
2023-03-14T09:54:53.846Z,12.00
2023-03-14T10:00:06.854Z,12.20
2023-03-14T10:05:22.731Z,12.20
2023-03-14T10:10:30.578Z,12.20
2023-03-14T10:15:38.390Z,12.50
2023-03-14T10:20:49.439Z,12.80
2023-03-14T10:26:09.407Z,12.60
2023-03-14T10:31:17.888Z,12.20
2023-03-14T10:36:33.569Z,12.00
2023-03-14T10:41:40.268Z,12.10
2023-03-14T10:46:47.036Z,12.10
2023-03-14T10:51:54.538Z,12.00
2023-03-14T10:57:04.161Z,11.90
2023-03-14T11:02:47.387Z,11.70
2023-03-14T11:07:58.697Z,11.70
2023-03-14T11:13:24.469Z,11.70
2023-03-14T11:18:38.806Z,11.60
2023-03-14T11:23:59.095Z,11.70
2023-03-14T11:29:32.723Z,11.80
2023-03-14T11:34:59.427Z,11.70
2023-03-14T11:40:22.089Z,11.70
2023-03-14T11:45:33.360Z,11.80
2023-03-14T11:50:41.910Z,11.70
2023-03-14T11:55:51.341Z,11.70
2023-03-14T12:01:00.834Z,11.80
2023-03-14T12:06:21.098Z,11.90
2023-03-14T12:11:44.292Z,11.90
2023-03-14T12:16:57.227Z,12.30
2023-03-14T12:22:20.328Z,12.40
2023-03-14T12:27:46.647Z,12.40
2023-03-14T12:33:21.992Z,12.40
2023-03-14T12:38:35.967Z,12.50
2023-03-14T12:43:42.129Z,12.50
2023-03-14T12:48:55.189Z,12.70
2023-03-14T12:54:26.974Z,12.70
2023-03-14T12:59:54.955Z,12.60
2023-03-14T13:05:14.555Z,12.70
2023-03-14T13:10:27.441Z,12.60
2023-03-14T13:15:47.138Z,12.50
2023-03-14T13:21:24.884Z,12.40
2023-03-14T13:26:45.768Z,12.20
2023-03-14T13:32:01.527Z,12.10
2023-03-14T13:37:10.060Z,12.00
2023-03-14T13:42:18.497Z,11.90
2023-03-14T13:47:28.396Z,11.80
2023-03-14T13:52:41.807Z,11.70
2023-03-14T13:57:54.609Z,11.80
2023-03-14T14:03:03.154Z,11.80
2023-03-14T14:08:11.489Z,11.90
2023-03-14T14:13:21.435Z,12.70
2023-03-14T14:18:30.493Z,12.40
2023-03-14T14:23:40.085Z,12.20
2023-03-14T14:28:48.169Z,11.90
2023-03-14T14:34:03.859Z,11.80
2023-03-14T14:39:30.384Z,11.70
2023-03-14T14:44:39.061Z,11.60
2023-03-14T14:49:46.282Z,11.60
2023-03-14T14:55:01.804Z,11.50
2023-03-14T15:00:14.657Z,11.50
2023-03-14T15:05:25.582Z,11.40
2023-03-14T15:10:32.890Z,11.30
2023-03-14T15:15:39.828Z,11.20
2023-03-14T15:20:48.311Z,11.20
2023-03-14T15:25:57.195Z,11.20
2023-03-14T15:31:04.306Z,11.20
2023-03-14T15:36:26.797Z,11.10
2023-03-14T15:41:33.632Z,11.00
2023-03-14T15:46:40.696Z,10.90
2023-03-14T15:51:47.914Z,10.90
2023-03-14T15:56:54.800Z,10.80
2023-03-14T16:02:02.103Z,10.70
2023-03-14T16:07:08.937Z,10.50
2023-03-14T16:12:15.856Z,10.50
2023-03-14T16:17:22.521Z,10.40
2023-03-14T16:22:30.753Z,10.40
2023-03-14T16:27:37.688Z,10.30
2023-03-14T16:32:44.601Z,10.30
2023-03-14T16:37:51.552Z,10.30
2023-03-14T16:43:14.822Z,10.40
2023-03-14T16:48:07.622Z,10.30
2023-03-14T16:53:14.306Z,10.30
2023-03-14T16:58:21.782Z,10.00
2023-03-14T17:03:28.978Z,10.00
2023-03-14T17:08:36.137Z,9.90
2023-03-14T17:13:43.091Z,9.60
2023-03-14T17:18:50.220Z,9.60
2023-03-14T17:23:57.694Z,9.40
2023-03-14T17:29:04.570Z,9.40
2023-03-14T17:34:11.799Z,9.30
2023-03-14T17:39:19.023Z,9.30
2023-03-14T17:44:25.836Z,9.30
2023-03-14T17:49:32.889Z,9.20
2023-03-14T17:54:40.162Z,9.30
2023-03-14T17:59:47.295Z,9.30
2023-03-14T18:04:54.988Z,9.40
2023-03-14T18:10:02.619Z,9.40
2023-03-14T18:15:11.214Z,9.40
2023-03-14T18:20:18.060Z,9.30
2023-03-14T18:25:24.896Z,9.10
2023-03-14T18:30:31.780Z,8.70
2023-03-14T18:35:40.234Z,8.40
2023-03-14T18:40:47.240Z,8.40
2023-03-14T18:45:56.121Z,8.40
2023-03-14T18:51:04.153Z,8.30
2023-03-14T18:56:13.752Z,8.30
2023-03-14T19:01:21.782Z,8.20
2023-03-14T19:06:32.781Z,8.00
2023-03-14T19:11:39.658Z,8.00
2023-03-14T19:16:47.033Z,7.80
2023-03-14T19:21:54.929Z,7.90
2023-03-14T19:27:01.940Z,7.90
2023-03-14T19:32:09.516Z,8.00
2023-03-14T19:37:16.330Z,7.90
2023-03-14T19:42:23.119Z,7.80
2023-03-14T19:47:32.012Z,7.70
2023-03-14T19:52:39.626Z,7.60
2023-03-14T19:57:46.678Z,7.70
2023-03-14T20:02:54.699Z,7.70
2023-03-14T20:08:01.901Z,7.60
2023-03-14T20:13:19.277Z,7.50
2023-03-14T20:18:17.132Z,7.30
2023-03-14T20:23:24.740Z,7.50
2023-03-14T20:28:31.553Z,7.40
2023-03-14T20:33:38.532Z,7.40
2023-03-14T20:38:45.240Z,7.40
2023-03-14T20:43:52.303Z,7.50
2023-03-14T20:48:58.966Z,7.60
2023-03-14T20:54:07.622Z,7.20
2023-03-14T20:59:16.169Z,7.30
2023-03-14T21:04:23.084Z,7.10
2023-03-14T21:09:30.660Z,7.30
2023-03-14T21:14:37.426Z,7.30
2023-03-14T21:19:45.952Z,7.10
2023-03-14T21:24:54.272Z,7.00
2023-03-14T21:30:01.521Z,6.80
2023-03-14T21:35:08.753Z,6.90
2023-03-14T21:40:16.093Z,7.00
2023-03-14T21:45:26.753Z,6.90
2023-03-14T21:50:34.884Z,6.80
2023-03-14T21:55:47.316Z,7.00
2023-03-14T22:00:55.397Z,6.80
2023-03-14T22:06:03.862Z,6.70
2023-03-14T22:11:10.580Z,6.70
2023-03-14T22:16:17.946Z,6.80
2023-03-14T22:21:24.981Z,6.90
2023-03-14T22:26:31.925Z,6.80
2023-03-14T22:31:39.353Z,6.80
2023-03-14T22:36:46.679Z,6.80
2023-03-14T22:41:53.533Z,6.80
2023-03-14T22:47:01.639Z,6.60
2023-03-14T22:52:08.457Z,6.50
2023-03-14T22:57:15.345Z,6.60
2023-03-14T23:02:22.319Z,6.50
2023-03-14T23:07:29.053Z,6.60
2023-03-14T23:12:36.216Z,6.60
2023-03-14T23:17:44.471Z,6.60
2023-03-14T23:22:52.252Z,6.70
2023-03-14T23:27:59.052Z,6.80
2023-03-14T23:33:07.057Z,6.80
2023-03-14T23:38:13.884Z,6.80
2023-03-14T23:43:21.613Z,6.50
2023-03-14T23:48:32.896Z,6.50
2023-03-14T23:53:39.592Z,6.60
2023-03-14T23:58:46.643Z,6.70
